sensor_id;sensor_type;location;lat;lon;timestamp;P1;P2;P0
55485;PMS5003;71262;-25.924;28.194;2024-01-10T00:01:35;5;5;
55485;PMS5003;71262;-25.924;28.194;2024-01-10T00:04:01;5;4;
55485;PMS5003;71262;-25.924;28.194;2024-01-10T00:06:26;6;6;
55485;PMS5003;71262;-25.924;28.194;2024-01-10T00:08:52;6;5;
55485;PMS5003;71262;-25.924;28.194;2024-01-10T00:11:18;7;5;
55485;PMS5003;71262;-25.924;28.194;2024-01-10T00:13:43;5;5;
55485;PMS5003;71262;-25.924;28.194;2024-01-10T00:16:11;5;4;
55485;PMS5003;71262;-25.924;28.194;2024-01-10T00:18:35;5;5;
55485;PMS5003;71262;-25.924;28.194;2024-01-10T00:21:01;7;7;
55485;PMS5003;71262;-25.924;28.194;2024-01-10T00:23:27;5;5;
55485;PMS5003;71262;-25.924;28.194;2024-01-10T00:25:52;5;4;
55485;PMS5003;71262;-25.924;28.194;2024-01-10T00:28:18;4;4;
55485;PMS5003;71262;-25.924;28.194;2024-01-10T00:30:44;7;7;
55485;PMS5003;71262;-25.924;28.194;2024-01-10T00:33:10;5;4;
55485;PMS5003;71262;-25.924;28.194;2024-01-10T00:35:36;4;4;
55485;PMS5003;71262;-25.924;28.194;2024-01-10T00:38:01;5;5;
55485;PMS5003;71262;-25.924;28.194;2024-01-10T00:40:27;8;6;
55485;PMS5003;71262;-25.924;28.194;2024-01-10T00:42:53;5;4;
55485;PMS5003;71262;-25.924;28.194;2024-01-10T00:45:19;5;4;
55485;PMS5003;71262;-25.924;28.194;2024-01-10T00:47:45;5;5;
55485;PMS5003;71262;-25.924;28.194;2024-01-10T00:50:10;6;4;
55485;PMS5003;71262;-25.924;28.194;2024-01-10T00:52:36;7;5;
55485;PMS5003;71262;-25.924;28.194;2024-01-10T00:55:02;4;4;
55485;PMS5003;71262;-25.924;28.194;2024-01-10T00:57:28;4;4;
55485;PMS5003;71262;-25.924;28.194;2024-01-10T00:59:54;10;4;
55485;PMS5003;71262;-25.924;28.194;2024-01-10T01:02:20;5;5;
55485;PMS5003;71262;-25.924;28.194;2024-01-10T01:04:45;4;4;
55485;PMS5003;71262;-25.924;28.194;2024-01-10T01:07:11;4;4;
55485;PMS5003;71262;-25.924;28.194;2024-01-10T01:09:37;4;4;
55485;PMS5003;71262;-25.924;28.194;2024-01-10T01:12:03;5;4;
55485;PMS5003;71262;-25.924;28.194;2024-01-10T01:14:28;6;5;
55485;PMS5003;71262;-25.924;28.194;2024-01-10T01:16:54;3;3;
55485;PMS5003;71262;-25.924;28.194;2024-01-10T01:19:20;4;4;
55485;PMS5003;71262;-25.924;28.194;2024-01-10T01:21:46;5;5;
55485;PMS5003;71262;-25.924;28.194;2024-01-10T01:24:12;4;4;
55485;PMS5003;71262;-25.924;28.194;2024-01-10T01:26:37;7;7;
55485;PMS5003;71262;-25.924;28.194;2024-01-10T01:29:03;7;6;
55485;PMS5003;71262;-25.924;28.194;2024-01-10T01:31:29;6;5;
55485;PMS5003;71262;-25.924;28.194;2024-01-10T01:33:55;5;5;
55485;PMS5003;71262;-25.924;28.194;2024-01-10T01:36:21;6;5;
55485;PMS5003;71262;-25.924;28.194;2024-01-10T01:38:46;5;4;
55485;PMS5003;71262;-25.924;28.194;2024-01-10T01:41:12;4;4;
55485;PMS5003;71262;-25.924;28.194;2024-01-10T01:43:38;4;4;
55485;PMS5003;71262;-25.924;28.194;2024-01-10T01:46:04;6;5;
55485;PMS5003;71262;-25.924;28.194;2024-01-10T01:48:30;6;5;
55485;PMS5003;71262;-25.924;28.194;2024-01-10T01:50:56;6;5;
55485;PMS5003;71262;-25.924;28.194;2024-01-10T01:53:21;6;5;
55485;PMS5003;71262;-25.924;28.194;2024-01-10T01:55:47;3;3;
55485;PMS5003;71262;-25.924;28.194;2024-01-10T01:58:13;5;4;
55485;PMS5003;71262;-25.924;28.194;2024-01-10T02:00:39;5;4;
55485;PMS5003;71262;-25.924;28.194;2024-01-10T02:03:05;5;5;
55485;PMS5003;71262;-25.924;28.194;2024-01-10T02:05:31;5;5;
55485;PMS5003;71262;-25.924;28.194;2024-01-10T02:07:56;5;4;
55485;PMS5003;71262;-25.924;28.194;2024-01-10T02:10:22;6;5;
55485;PMS5003;71262;-25.924;28.194;2024-01-10T02:12:48;4;4;
55485;PMS5003;71262;-25.924;28.194;2024-01-10T02:15:14;6;5;
55485;PMS5003;71262;-25.924;28.194;2024-01-10T02:17:39;4;4;
55485;PMS5003;71262;-25.924;28.194;2024-01-10T02:20:09;5;5;
55485;PMS5003;71262;-25.924;28.194;2024-01-10T02:22:31;6;6;
55485;PMS5003;71262;-25.924;28.194;2024-01-10T02:24:57;4;4;
55485;PMS5003;71262;-25.924;28.194;2024-01-10T02:27:23;5;5;
55485;PMS5003;71262;-25.924;28.194;2024-01-10T02:29:48;5;5;
55485;PMS5003;71262;-25.924;28.194;2024-01-10T02:32:14;5;4;
55485;PMS5003;71262;-25.924;28.194;2024-01-10T02:34:40;4;4;
55485;PMS5003;71262;-25.924;28.194;2024-01-10T02:37:06;4;4;
55485;PMS5003;71262;-25.924;28.194;2024-01-10T02:39:32;4;3;
55485;PMS5003;71262;-25.924;28.194;2024-01-10T02:41:58;6;6;
55485;PMS5003;71262;-25.924;28.194;2024-01-10T02:44:23;6;5;
55485;PMS5003;71262;-25.924;28.194;2024-01-10T02:46:49;5;5;
55485;PMS5003;71262;-25.924;28.194;2024-01-10T02:49:15;5;5;
55485;PMS5003;71262;-25.924;28.194;2024-01-10T02:51:41;6;5;
55485;PMS5003;71262;-25.924;28.194;2024-01-10T02:54:06;6;6;
55485;PMS5003;71262;-25.924;28.194;2024-01-10T02:56:32;5;5;
55485;PMS5003;71262;-25.924;28.194;2024-01-10T02:58:58;5;4;
55485;PMS5003;71262;-25.924;28.194;2024-01-10T03:01:24;3;3;
55485;PMS5003;71262;-25.924;28.194;2024-01-10T03:03:49;6;5;
55485;PMS5003;71262;-25.924;28.194;2024-01-10T03:06:15;5;4;
55485;PMS5003;71262;-25.924;28.194;2024-01-10T03:08:41;5;5;
55485;PMS5003;71262;-25.924;28.194;2024-01-10T03:11:07;8;5;
55485;PMS5003;71262;-25.924;28.194;2024-01-10T03:13:33;6;4;
55485;PMS5003;71262;-25.924;28.194;2024-01-10T03:15:59;4;4;
55485;PMS5003;71262;-25.924;28.194;2024-01-10T03:18:24;4;4;
55485;PMS5003;71262;-25.924;28.194;2024-01-10T03:20:50;5;5;
55485;PMS5003;71262;-25.924;28.194;2024-01-10T03:23:15;3;3;
55485;PMS5003;71262;-25.924;28.194;2024-01-10T03:25:41;5;4;
55485;PMS5003;71262;-25.924;28.194;2024-01-10T03:28:07;4;3;
55485;PMS5003;71262;-25.924;28.194;2024-01-10T03:30:33;6;5;
55485;PMS5003;71262;-25.924;28.194;2024-01-10T03:32:59;3;3;
55485;PMS5003;71262;-25.924;28.194;2024-01-10T03:35:24;4;3;
55485;PMS5003;71262;-25.924;28.194;2024-01-10T03:37:50;5;3;
55485;PMS5003;71262;-25.924;28.194;2024-01-10T03:40:16;6;5;
55485;PMS5003;71262;-25.924;28.194;2024-01-10T03:42:42;7;6;
55485;PMS5003;71262;-25.924;28.194;2024-01-10T03:45:08;3;3;
55485;PMS5003;71262;-25.924;28.194;2024-01-10T03:47:33;4;4;
55485;PMS5003;71262;-25.924;28.194;2024-01-10T03:49:59;6;6;
55485;PMS5003;71262;-25.924;28.194;2024-01-10T03:52:25;5;4;
55485;PMS5003;71262;-25.924;28.194;2024-01-10T03:54:51;4;4;
55485;PMS5003;71262;-25.924;28.194;2024-01-10T03:57:17;5;4;
55485;PMS5003;71262;-25.924;28.194;2024-01-10T03:59:42;4;3;
55485;PMS5003;71262;-25.924;28.194;2024-01-10T04:02:08;5;5;
55485;PMS5003;71262;-25.924;28.194;2024-01-10T04:04:36;4;4;
55485;PMS5003;71262;-25.924;28.194;2024-01-10T04:07:00;5;5;
55485;PMS5003;71262;-25.924;28.194;2024-01-10T04:09:26;4;4;
55485;PMS5003;71262;-25.924;28.194;2024-01-10T04:11:52;4;4;
55485;PMS5003;71262;-25.924;28.194;2024-01-10T04:14:17;6;5;
55485;PMS5003;71262;-25.924;28.194;2024-01-10T04:16:43;6;5;
55485;PMS5003;71262;-25.924;28.194;2024-01-10T04:19:09;4;4;
55485;PMS5003;71262;-25.924;28.194;2024-01-10T04:21:35;5;5;
55485;PMS5003;71262;-25.924;28.194;2024-01-10T04:24:00;9;8;
55485;PMS5003;71262;-25.924;28.194;2024-01-10T04:26:26;6;5;
55485;PMS5003;71262;-25.924;28.194;2024-01-10T04:28:52;5;4;
55485;PMS5003;71262;-25.924;28.194;2024-01-10T04:31:18;7;6;
55485;PMS5003;71262;-25.924;28.194;2024-01-10T04:33:44;5;5;
55485;PMS5003;71262;-25.924;28.194;2024-01-10T04:36:09;4;4;
55485;PMS5003;71262;-25.924;28.194;2024-01-10T04:38:35;8;6;
55485;PMS5003;71262;-25.924;28.194;2024-01-10T04:41:01;6;6;
55485;PMS5003;71262;-25.924;28.194;2024-01-10T04:43:27;8;7;
55485;PMS5003;71262;-25.924;28.194;2024-01-10T04:45:52;9;8;
55485;PMS5003;71262;-25.924;28.194;2024-01-10T04:48:18;7;4;
55485;PMS5003;71262;-25.924;28.194;2024-01-10T04:50:44;7;7;
55485;PMS5003;71262;-25.924;28.194;2024-01-10T04:53:10;6;5;
55485;PMS5003;71262;-25.924;28.194;2024-01-10T04:55:36;7;7;
55485;PMS5003;71262;-25.924;28.194;2024-01-10T04:58:02;8;7;
55485;PMS5003;71262;-25.924;28.194;2024-01-10T05:00:27;9;7;
55485;PMS5003;71262;-25.924;28.194;2024-01-10T05:02:53;11;9;
55485;PMS5003;71262;-25.924;28.194;2024-01-10T05:05:19;12;8;
55485;PMS5003;71262;-25.924;28.194;2024-01-10T05:07:45;13;9;
55485;PMS5003;71262;-25.924;28.194;2024-01-10T05:10:11;7;7;
55485;PMS5003;71262;-25.924;28.194;2024-01-10T05:12:36;10;10;
55485;PMS5003;71262;-25.924;28.194;2024-01-10T05:15:02;7;7;
55485;PMS5003;71262;-25.924;28.194;2024-01-10T05:17:28;9;8;
55485;PMS5003;71262;-25.924;28.194;2024-01-10T05:19:54;12;10;
55485;PMS5003;71262;-25.924;28.194;2024-01-10T05:22:20;10;9;
55485;PMS5003;71262;-25.924;28.194;2024-01-10T05:24:45;9;8;
55485;PMS5003;71262;-25.924;28.194;2024-01-10T05:27:11;7;7;
55485;PMS5003;71262;-25.924;28.194;2024-01-10T05:29:37;9;8;
55485;PMS5003;71262;-25.924;28.194;2024-01-10T05:32:03;8;8;
55485;PMS5003;71262;-25.924;28.194;2024-01-10T05:34:29;9;8;
55485;PMS5003;71262;-25.924;28.194;2024-01-10T05:36:54;10;9;
55485;PMS5003;71262;-25.924;28.194;2024-01-10T05:39:20;9;8;
55485;PMS5003;71262;-25.924;28.194;2024-01-10T05:41:46;9;8;
55485;PMS5003;71262;-25.924;28.194;2024-01-10T05:44:12;9;8;
55485;PMS5003;71262;-25.924;28.194;2024-01-10T05:46:38;10;8;
55485;PMS5003;71262;-25.924;28.194;2024-01-10T05:49:03;9;8;
55485;PMS5003;71262;-25.924;28.194;2024-01-10T05:51:29;8;8;
55485;PMS5003;71262;-25.924;28.194;2024-01-10T05:53:55;11;10;
55485;PMS5003;71262;-25.924;28.194;2024-01-10T05:56:21;11;11;
55485;PMS5003;71262;-25.924;28.194;2024-01-10T05:58:47;8;8;
55485;PMS5003;71262;-25.924;28.194;2024-01-10T06:01:12;10;9;
55485;PMS5003;71262;-25.924;28.194;2024-01-10T06:03:38;10;10;
55485;PMS5003;71262;-25.924;28.194;2024-01-10T06:06:04;8;8;
55485;PMS5003;71262;-25.924;28.194;2024-01-10T06:08:30;9;7;
55485;PMS5003;71262;-25.924;28.194;2024-01-10T06:10:56;7;6;
55485;PMS5003;71262;-25.924;28.194;2024-01-10T06:13:21;9;7;
55485;PMS5003;71262;-25.924;28.194;2024-01-10T06:15:47;11;10;
55485;PMS5003;71262;-25.924;28.194;2024-01-10T06:18:13;10;9;
55485;PMS5003;71262;-25.924;28.194;2024-01-10T06:20:38;8;7;
55485;PMS5003;71262;-25.924;28.194;2024-01-10T06:23:05;9;8;
55485;PMS5003;71262;-25.924;28.194;2024-01-10T06:25:30;12;8;
55485;PMS5003;71262;-25.924;28.194;2024-01-10T06:27:56;11;6;
55485;PMS5003;71262;-25.924;28.194;2024-01-10T06:30:22;9;8;
55485;PMS5003;71262;-25.924;28.194;2024-01-10T06:32:48;8;7;
55485;PMS5003;71262;-25.924;28.194;2024-01-10T06:35:13;8;8;
55485;PMS5003;71262;-25.924;28.194;2024-01-10T06:37:40;8;7;
55485;PMS5003;71262;-25.924;28.194;2024-01-10T06:40:05;8;8;
55485;PMS5003;71262;-25.924;28.194;2024-01-10T06:42:31;9;7;
55485;PMS5003;71262;-25.924;28.194;2024-01-10T06:44:57;10;9;
55485;PMS5003;71262;-25.924;28.194;2024-01-10T06:47:22;7;7;
55485;PMS5003;71262;-25.924;28.194;2024-01-10T06:49:48;11;8;
55485;PMS5003;71262;-25.924;28.194;2024-01-10T06:52:14;10;9;
55485;PMS5003;71262;-25.924;28.194;2024-01-10T06:54:40;8;8;
55485;PMS5003;71262;-25.924;28.194;2024-01-10T06:57:06;9;8;
55485;PMS5003;71262;-25.924;28.194;2024-01-10T06:59:31;6;6;
55485;PMS5003;71262;-25.924;28.194;2024-01-10T07:01:58;8;8;
55485;PMS5003;71262;-25.924;28.194;2024-01-10T07:04:23;9;8;
55485;PMS5003;71262;-25.924;28.194;2024-01-10T07:06:49;8;8;
55485;PMS5003;71262;-25.924;28.194;2024-01-10T07:09:14;7;7;
55485;PMS5003;71262;-25.924;28.194;2024-01-10T07:11:40;11;8;
55485;PMS5003;71262;-25.924;28.194;2024-01-10T07:14:06;11;8;
55485;PMS5003;71262;-25.924;28.194;2024-01-10T07:16:32;8;7;
55485;PMS5003;71262;-25.924;28.194;2024-01-10T07:18:58;8;8;
55485;PMS5003;71262;-25.924;28.194;2024-01-10T07:21:23;9;8;
55485;PMS5003;71262;-25.924;28.194;2024-01-10T07:23:49;8;8;
55485;PMS5003;71262;-25.924;28.194;2024-01-10T07:26:15;9;9;
55485;PMS5003;71262;-25.924;28.194;2024-01-10T07:28:40;10;8;
55485;PMS5003;71262;-25.924;28.194;2024-01-10T07:31:06;11;10;
55485;PMS5003;71262;-25.924;28.194;2024-01-10T07:33:32;10;9;
55485;PMS5003;71262;-25.924;28.194;2024-01-10T07:35:58;10;8;
55485;PMS5003;71262;-25.924;28.194;2024-01-10T07:38:23;12;11;
55485;PMS5003;71262;-25.924;28.194;2024-01-10T07:40:49;9;9;
55485;PMS5003;71262;-25.924;28.194;2024-01-10T07:43:15;10;10;
55485;PMS5003;71262;-25.924;28.194;2024-01-10T07:45:41;8;8;
55485;PMS5003;71262;-25.924;28.194;2024-01-10T07:48:06;12;10;
55485;PMS5003;71262;-25.924;28.194;2024-01-10T07:50:32;12;11;
55485;PMS5003;71262;-25.924;28.194;2024-01-10T07:52:59;14;9;
55485;PMS5003;71262;-25.924;28.194;2024-01-10T07:55:23;10;9;
55485;PMS5003;71262;-25.924;28.194;2024-01-10T07:57:49;10;9;
55485;PMS5003;71262;-25.924;28.194;2024-01-10T08:00:15;9;9;
55485;PMS5003;71262;-25.924;28.194;2024-01-10T08:02:40;10;9;
55485;PMS5003;71262;-25.924;28.194;2024-01-10T08:05:06;9;7;
55485;PMS5003;71262;-25.924;28.194;2024-01-10T08:07:31;9;8;
55485;PMS5003;71262;-25.924;28.194;2024-01-10T08:09:57;9;9;
55485;PMS5003;71262;-25.924;28.194;2024-01-10T08:12:23;9;8;
55485;PMS5003;71262;-25.924;28.194;2024-01-10T08:14:48;11;9;
55485;PMS5003;71262;-25.924;28.194;2024-01-10T08:17:14;10;10;
55485;PMS5003;71262;-25.924;28.194;2024-01-10T08:19:40;12;10;
55485;PMS5003;71262;-25.924;28.194;2024-01-10T08:22:06;7;6;
55485;PMS5003;71262;-25.924;28.194;2024-01-10T08:24:32;11;10;
55485;PMS5003;71262;-25.924;28.194;2024-01-10T08:26:58;10;8;
55485;PMS5003;71262;-25.924;28.194;2024-01-10T08:29:23;8;8;
55485;PMS5003;71262;-25.924;28.194;2024-01-10T08:31:49;11;9;
55485;PMS5003;71262;-25.924;28.194;2024-01-10T08:34:14;10;10;
55485;PMS5003;71262;-25.924;28.194;2024-01-10T08:36:40;12;10;
55485;PMS5003;71262;-25.924;28.194;2024-01-10T08:39:06;11;11;
55485;PMS5003;71262;-25.924;28.194;2024-01-10T08:41:32;9;8;
55485;PMS5003;71262;-25.924;28.194;2024-01-10T08:43:57;8;8;
55485;PMS5003;71262;-25.924;28.194;2024-01-10T08:46:23;12;11;
55485;PMS5003;71262;-25.924;28.194;2024-01-10T08:48:48;10;9;
55485;PMS5003;71262;-25.924;28.194;2024-01-10T08:51:14;12;11;
55485;PMS5003;71262;-25.924;28.194;2024-01-10T08:53:40;8;8;
55485;PMS5003;71262;-25.924;28.194;2024-01-10T08:56:06;11;9;
55485;PMS5003;71262;-25.924;28.194;2024-01-10T08:58:32;10;10;
55485;PMS5003;71262;-25.924;28.194;2024-01-10T09:00:58;11;10;
55485;PMS5003;71262;-25.924;28.194;2024-01-10T09:03:23;11;8;
55485;PMS5003;71262;-25.924;28.194;2024-01-10T09:05:49;8;8;
55485;PMS5003;71262;-25.924;28.194;2024-01-10T09:08:14;9;8;
55485;PMS5003;71262;-25.924;28.194;2024-01-10T09:10:40;11;8;
55485;PMS5003;71262;-25.924;28.194;2024-01-10T09:13:06;9;8;
55485;PMS5003;71262;-25.924;28.194;2024-01-10T09:15:32;11;11;
55485;PMS5003;71262;-25.924;28.194;2024-01-10T09:17:58;8;8;
55485;PMS5003;71262;-25.924;28.194;2024-01-10T09:20:23;12;8;
55485;PMS5003;71262;-25.924;28.194;2024-01-10T09:22:49;9;8;
55485;PMS5003;71262;-25.924;28.194;2024-01-10T09:25:15;9;8;
55485;PMS5003;71262;-25.924;28.194;2024-01-10T09:27:41;10;9;
55485;PMS5003;71262;-25.924;28.194;2024-01-10T09:30:06;9;8;
55485;PMS5003;71262;-25.924;28.194;2024-01-10T09:32:32;8;8;
55485;PMS5003;71262;-25.924;28.194;2024-01-10T09:34:57;8;7;
55485;PMS5003;71262;-25.924;28.194;2024-01-10T09:37:23;6;6;
55485;PMS5003;71262;-25.924;28.194;2024-01-10T09:39:49;7;7;
55485;PMS5003;71262;-25.924;28.194;2024-01-10T09:42:15;7;6;
55485;PMS5003;71262;-25.924;28.194;2024-01-10T09:44:40;10;7;
55485;PMS5003;71262;-25.924;28.194;2024-01-10T09:47:06;9;6;
55485;PMS5003;71262;-25.924;28.194;2024-01-10T09:49:32;7;6;
55485;PMS5003;71262;-25.924;28.194;2024-01-10T09:51:59;7;5;
55485;PMS5003;71262;-25.924;28.194;2024-01-10T09:54:24;6;6;
55485;PMS5003;71262;-25.924;28.194;2024-01-10T09:56:49;7;6;
55485;PMS5003;71262;-25.924;28.194;2024-01-10T09:59:16;6;6;
55485;PMS5003;71262;-25.924;28.194;2024-01-10T10:01:41;5;5;
55485;PMS5003;71262;-25.924;28.194;2024-01-10T10:04:07;5;5;
55485;PMS5003;71262;-25.924;28.194;2024-01-10T10:06:32;10;7;
55485;PMS5003;71262;-25.924;28.194;2024-01-10T10:08:58;4;4;
55485;PMS5003;71262;-25.924;28.194;2024-01-10T10:11:24;6;4;
55485;PMS5003;71262;-25.924;28.194;2024-01-10T10:13:50;7;7;
55485;PMS5003;71262;-25.924;28.194;2024-01-10T10:16:18;4;4;
55485;PMS5003;71262;-25.924;28.194;2024-01-10T10:18:42;9;9;
55485;PMS5003;71262;-25.924;28.194;2024-01-10T10:21:08;5;5;
55485;PMS5003;71262;-25.924;28.194;2024-01-10T10:23:33;8;6;
55485;PMS5003;71262;-25.924;28.194;2024-01-10T10:26:02;8;7;
55485;PMS5003;71262;-25.924;28.194;2024-01-10T10:28:28;4;4;
55485;PMS5003;71262;-25.924;28.194;2024-01-10T10:30:51;4;4;
55485;PMS5003;71262;-25.924;28.194;2024-01-10T10:33:17;6;6;
55485;PMS5003;71262;-25.924;28.194;2024-01-10T10:35:44;7;6;
55485;PMS5003;71262;-25.924;28.194;2024-01-10T10:38:08;7;7;
55485;PMS5003;71262;-25.924;28.194;2024-01-10T10:40:35;8;7;
55485;PMS5003;71262;-25.924;28.194;2024-01-10T10:42:59;8;7;
55485;PMS5003;71262;-25.924;28.194;2024-01-10T10:45:25;5;5;
55485;PMS5003;71262;-25.924;28.194;2024-01-10T10:47:53;7;6;
55485;PMS5003;71262;-25.924;28.194;2024-01-10T10:50:19;6;6;
55485;PMS5003;71262;-25.924;28.194;2024-01-10T10:52:44;6;6;
55485;PMS5003;71262;-25.924;28.194;2024-01-10T10:55:08;6;6;
55485;PMS5003;71262;-25.924;28.194;2024-01-10T10:57:34;8;6;
55485;PMS5003;71262;-25.924;28.194;2024-01-10T11:00:00;10;7;
55485;PMS5003;71262;-25.924;28.194;2024-01-10T11:02:27;6;6;
55485;PMS5003;71262;-25.924;28.194;2024-01-10T11:04:52;6;6;
55485;PMS5003;71262;-25.924;28.194;2024-01-10T11:07:18;6;6;
55485;PMS5003;71262;-25.924;28.194;2024-01-10T11:09:44;7;5;
55485;PMS5003;71262;-25.924;28.194;2024-01-10T11:12:14;8;7;
55485;PMS5003;71262;-25.924;28.194;2024-01-10T11:14:38;8;8;
55485;PMS5003;71262;-25.924;28.194;2024-01-10T11:21:55;6;5;
55485;PMS5003;71262;-25.924;28.194;2024-01-10T11:24:16;9;7;
55485;PMS5003;71262;-25.924;28.194;2024-01-10T11:26:42;6;5;
55485;PMS5003;71262;-25.924;28.194;2024-01-10T11:29:08;9;7;
55485;PMS5003;71262;-25.924;28.194;2024-01-10T11:31:34;8;6;
55485;PMS5003;71262;-25.924;28.194;2024-01-10T11:34:00;5;4;
55485;PMS5003;71262;-25.924;28.194;2024-01-10T11:36:25;9;8;
55485;PMS5003;71262;-25.924;28.194;2024-01-10T11:38:54;7;7;
55485;PMS5003;71262;-25.924;28.194;2024-01-10T11:41:20;8;7;
55485;PMS5003;71262;-25.924;28.194;2024-01-10T11:43:42;8;8;
55485;PMS5003;71262;-25.924;28.194;2024-01-10T11:46:08;8;6;
55485;PMS5003;71262;-25.924;28.194;2024-01-10T11:48:34;7;6;
55485;PMS5003;71262;-25.924;28.194;2024-01-10T11:51:00;7;7;
55485;PMS5003;71262;-25.924;28.194;2024-01-10T11:55:51;9;8;
55485;PMS5003;71262;-25.924;28.194;2024-01-10T11:58:17;8;8;
55485;PMS5003;71262;-25.924;28.194;2024-01-10T12:00:42;8;7;
55485;PMS5003;71262;-25.924;28.194;2024-01-10T12:03:08;6;6;
55485;PMS5003;71262;-25.924;28.194;2024-01-10T12:05:34;9;7;
55485;PMS5003;71262;-25.924;28.194;2024-01-10T12:07:59;9;8;
55485;PMS5003;71262;-25.924;28.194;2024-01-10T12:10:25;9;9;
55485;PMS5003;71262;-25.924;28.194;2024-01-10T12:12:51;8;8;
55485;PMS5003;71262;-25.924;28.194;2024-01-10T12:15:16;8;7;
55485;PMS5003;71262;-25.924;28.194;2024-01-10T12:17:42;10;9;
55485;PMS5003;71262;-25.924;28.194;2024-01-10T12:20:08;10;9;
55485;PMS5003;71262;-25.924;28.194;2024-01-10T12:22:34;9;7;
55485;PMS5003;71262;-25.924;28.194;2024-01-10T12:25:04;7;7;
55485;PMS5003;71262;-25.924;28.194;2024-01-10T12:27:25;9;9;
55485;PMS5003;71262;-25.924;28.194;2024-01-10T12:29:51;8;8;
55485;PMS5003;71262;-25.924;28.194;2024-01-10T12:32:17;9;9;
55485;PMS5003;71262;-25.924;28.194;2024-01-10T12:34:42;11;9;
55485;PMS5003;71262;-25.924;28.194;2024-01-10T12:37:10;9;9;
55485;PMS5003;71262;-25.924;28.194;2024-01-10T12:39:33;12;10;
55485;PMS5003;71262;-25.924;28.194;2024-01-10T12:41:59;8;8;
55485;PMS5003;71262;-25.924;28.194;2024-01-10T12:44:27;10;9;
55485;PMS5003;71262;-25.924;28.194;2024-01-10T12:46:51;11;10;
55485;PMS5003;71262;-25.924;28.194;2024-01-10T12:49:16;12;10;
55485;PMS5003;71262;-25.924;28.194;2024-01-10T12:51:42;11;10;
55485;PMS5003;71262;-25.924;28.194;2024-01-10T12:54:08;14;10;
55485;PMS5003;71262;-25.924;28.194;2024-01-10T12:56:34;10;9;
55485;PMS5003;71262;-25.924;28.194;2024-01-10T12:59:00;11;10;
55485;PMS5003;71262;-25.924;28.194;2024-01-10T13:01:25;13;12;
55485;PMS5003;71262;-25.924;28.194;2024-01-10T13:03:51;16;14;
55485;PMS5003;71262;-25.924;28.194;2024-01-10T13:06:17;15;14;
55485;PMS5003;71262;-25.924;28.194;2024-01-10T13:08:43;11;11;
55485;PMS5003;71262;-25.924;28.194;2024-01-10T13:11:07;12;12;
55485;PMS5003;71262;-25.924;28.194;2024-01-10T13:13:33;12;11;
55485;PMS5003;71262;-25.924;28.194;2024-01-10T13:15:59;15;13;
55485;PMS5003;71262;-25.924;28.194;2024-01-10T13:18:25;13;10;
55485;PMS5003;71262;-25.924;28.194;2024-01-10T13:20:50;15;13;
55485;PMS5003;71262;-25.924;28.194;2024-01-10T13:23:17;16;12;
55485;PMS5003;71262;-25.924;28.194;2024-01-10T13:25:41;11;10;
55485;PMS5003;71262;-25.924;28.194;2024-01-10T13:28:07;11;10;
55485;PMS5003;71262;-25.924;28.194;2024-01-10T13:30:32;17;15;
55485;PMS5003;71262;-25.924;28.194;2024-01-10T13:32:58;16;13;
55485;PMS5003;71262;-25.924;28.194;2024-01-10T13:35:23;15;13;
55485;PMS5003;71262;-25.924;28.194;2024-01-10T13:37:49;15;15;
55485;PMS5003;71262;-25.924;28.194;2024-01-10T13:40:15;12;12;
55485;PMS5003;71262;-25.924;28.194;2024-01-10T13:42:41;11;9;
55485;PMS5003;71262;-25.924;28.194;2024-01-10T13:45:07;17;14;
55485;PMS5003;71262;-25.924;28.194;2024-01-10T13:47:32;13;12;
55485;PMS5003;71262;-25.924;28.194;2024-01-10T13:49:58;13;11;
55485;PMS5003;71262;-25.924;28.194;2024-01-10T13:52:23;14;13;
55485;PMS5003;71262;-25.924;28.194;2024-01-10T13:54:49;17;16;
55485;PMS5003;71262;-25.924;28.194;2024-01-10T13:57:14;13;12;
55485;PMS5003;71262;-25.924;28.194;2024-01-10T13:59:40;21;15;
55485;PMS5003;71262;-25.924;28.194;2024-01-10T14:02:05;14;13;
55485;PMS5003;71262;-25.924;28.194;2024-01-10T14:04:31;17;11;
55485;PMS5003;71262;-25.924;28.194;2024-01-10T14:06:56;14;13;
55485;PMS5003;71262;-25.924;28.194;2024-01-10T14:09:22;14;13;
55485;PMS5003;71262;-25.924;28.194;2024-01-10T14:11:48;16;14;
55485;PMS5003;71262;-25.924;28.194;2024-01-10T14:14:14;16;14;
55485;PMS5003;71262;-25.924;28.194;2024-01-10T14:16:39;14;14;
55485;PMS5003;71262;-25.924;28.194;2024-01-10T14:19:05;17;15;
55485;PMS5003;71262;-25.924;28.194;2024-01-10T14:21:31;14;14;
55485;PMS5003;71262;-25.924;28.194;2024-01-10T14:23:56;19;14;
55485;PMS5003;71262;-25.924;28.194;2024-01-10T14:26:22;12;12;
55485;PMS5003;71262;-25.924;28.194;2024-01-10T14:28:48;15;14;
55485;PMS5003;71262;-25.924;28.194;2024-01-10T14:31:13;17;13;
55485;PMS5003;71262;-25.924;28.194;2024-01-10T14:33:38;17;13;
55485;PMS5003;71262;-25.924;28.194;2024-01-10T14:36:04;20;15;
55485;PMS5003;71262;-25.924;28.194;2024-01-10T14:38:29;16;15;
55485;PMS5003;71262;-25.924;28.194;2024-01-10T14:40:55;20;14;
55485;PMS5003;71262;-25.924;28.194;2024-01-10T14:43:21;17;16;
55485;PMS5003;71262;-25.924;28.194;2024-01-10T14:45:46;12;12;
55485;PMS5003;71262;-25.924;28.194;2024-01-10T14:48:12;12;11;
55485;PMS5003;71262;-25.924;28.194;2024-01-10T14:50:37;17;17;
55485;PMS5003;71262;-25.924;28.194;2024-01-10T14:53:03;15;13;
55485;PMS5003;71262;-25.924;28.194;2024-01-10T14:55:29;16;13;
55485;PMS5003;71262;-25.924;28.194;2024-01-10T14:57:55;14;12;
55485;PMS5003;71262;-25.924;28.194;2024-01-10T15:00:20;17;15;
55485;PMS5003;71262;-25.924;28.194;2024-01-10T15:02:46;15;14;
55485;PMS5003;71262;-25.924;28.194;2024-01-10T15:05:11;13;12;
55485;PMS5003;71262;-25.924;28.194;2024-01-10T15:07:36;16;16;
55485;PMS5003;71262;-25.924;28.194;2024-01-10T15:10:02;18;13;
55485;PMS5003;71262;-25.924;28.194;2024-01-10T15:12:29;15;14;
55485;PMS5003;71262;-25.924;28.194;2024-01-10T15:14:54;18;16;
55485;PMS5003;71262;-25.924;28.194;2024-01-10T15:17:19;14;13;
55485;PMS5003;71262;-25.924;28.194;2024-01-10T15:19:44;18;13;
55485;PMS5003;71262;-25.924;28.194;2024-01-10T15:22:10;14;14;
55485;PMS5003;71262;-25.924;28.194;2024-01-10T15:24:36;17;13;
55485;PMS5003;71262;-25.924;28.194;2024-01-10T15:27:01;13;12;
55485;PMS5003;71262;-25.924;28.194;2024-01-10T15:29:28;13;12;
55485;PMS5003;71262;-25.924;28.194;2024-01-10T15:31:53;12;11;
55485;PMS5003;71262;-25.924;28.194;2024-01-10T15:34:19;22;16;
55485;PMS5003;71262;-25.924;28.194;2024-01-10T15:36:44;16;15;
55485;PMS5003;71262;-25.924;28.194;2024-01-10T15:39:10;18;13;
55485;PMS5003;71262;-25.924;28.194;2024-01-10T15:41:36;15;15;
55485;PMS5003;71262;-25.924;28.194;2024-01-10T15:44:01;13;13;
55485;PMS5003;71262;-25.924;28.194;2024-01-10T15:46:28;14;14;
55485;PMS5003;71262;-25.924;28.194;2024-01-10T15:48:53;15;14;
55485;PMS5003;71262;-25.924;28.194;2024-01-10T15:51:19;16;13;
55485;PMS5003;71262;-25.924;28.194;2024-01-10T15:53:44;12;12;
55485;PMS5003;71262;-25.924;28.194;2024-01-10T15:56:10;14;14;
55485;PMS5003;71262;-25.924;28.194;2024-01-10T15:58:36;15;14;
55485;PMS5003;71262;-25.924;28.194;2024-01-10T16:01:02;17;12;
55485;PMS5003;71262;-25.924;28.194;2024-01-10T16:03:28;14;12;